Time;durP1;ratioP1;P1;durP2;ratioP2;P2;SDS_P1;SDS_P2;PMS_P1;PMS_P2;Temp;Humidity;BMP_temperature;BMP_pressure;BME280_temperature;BME280_humidity;BME280_pressure;Samples;Min_cycle;Max_cycle;Signal;HPM_P1;HPM_P2
2021/01/14 00:02:56;;;;;;;26.27;18.63;;;;;;;;;;10041393;29;20087;-64
2021/01/14 00:07:53;;;;;;;25.48;18.13;;;;;;;;;;10041840;29;20490;-63
2021/01/14 00:12:51;;;;;;;31.33;19.02;;;;;;;;;;10112749;28;20050;-63
2021/01/14 00:17:48;;;;;;;28.58;20.63;;;;;;;;;;10119563;28;20074;-63
2021/01/14 00:22:46;;;;;;;29.77;19.88;;;;;;;;;;10119568;28;20436;-63
2021/01/14 00:27:44;;;;;;;23.90;16.80;;;;;;;;;;10119189;28;20108;-63
2021/01/14 00:32:41;;;;;;;29.35;19.23;;;;;;;;;;10118896;28;20071;-64
2021/01/14 00:37:53;;;;;;;27.15;18.05;;;;;;;;;;10118867;28;20521;-64
2021/01/14 00:42:55;;;;;;;32.08;20.30;;;;;;;;;;10118543;28;20066;-63
2021/01/14 00:47:53;;;;;;;32.10;20.15;;;;;;;;;;10117597;28;20480;-63
2021/01/14 00:52:50;;;;;;;29.88;18.17;;;;;;;;;;10100461;28;20047;-63
2021/01/14 00:57:47;;;;;;;28.45;18.52;;;;;;;;;;10118047;28;20055;-64
2021/01/14 01:02:46;;;;;;;30.15;20.15;;;;;;;;;;10118315;28;20077;-63
2021/01/14 01:07:47;;;;;;;30.33;19.95;;;;;;;;;;10117673;28;20082;-63
2021/01/14 01:12:45;;;;;;;33.03;21.70;;;;;;;;;;10116867;28;20097;-63
2021/01/14 01:17:42;;;;;;;31.88;21.15;;;;;;;;;;10117234;28;20504;-63
2021/01/14 01:22:40;;;;;;;29.55;18.42;;;;;;;;;;10117015;28;20074;-63
2021/01/14 01:27:37;;;;;;;29.35;18.33;;;;;;;;;;10116711;28;20093;-64
2021/01/14 01:32:35;;;;;;;31.27;19.13;;;;;;;;;;10116699;28;20089;-64
2021/01/14 01:37:32;;;;;;;27.90;18.52;;;;;;;;;;10116772;28;20051;-64
2021/01/14 01:42:30;;;;;;;29.67;20.15;;;;;;;;;;10116557;28;20074;-64
2021/01/14 01:47:33;;;;;;;28.27;17.80;;;;;;;;;;10116091;28;20489;-63
2021/01/14 01:52:32;;;;;;;24.73;17.00;;;;;;;;;;10116313;28;20488;-63
2021/01/14 01:57:29;;;;;;;27.77;18.67;;;;;;;;;;10115652;28;20083;-64
2021/01/14 02:02:28;;;;;;;30.70;19.92;;;;;;;;;;10115502;28;20111;-62
2021/01/14 02:07:32;;;;;;;35.72;23.13;;;;;;;;;;10115092;28;20159;-64
2021/01/14 02:12:33;;;;;;;25.92;17.73;;;;;;;;;;10115254;28;20519;-64
2021/01/14 02:17:31;;;;;;;26.65;17.60;;;;;;;;;;10115466;28;20081;-62
2021/01/14 02:22:29;;;;;;;27.90;18.23;;;;;;;;;;10117864;28;20066;-62
2021/01/14 02:27:28;;;;;;;30.95;20.20;;;;;;;;;;10123211;28;20078;-63
2021/01/14 02:32:25;;;;;;;27.25;19.08;;;;;;;;;;10122577;28;20078;-62
2021/01/14 02:37:22;;;;;;;32.90;20.95;;;;;;;;;;10123271;28;20050;-62
2021/01/14 02:42:20;;;;;;;30.42;18.95;;;;;;;;;;10123036;28;20074;-62
2021/01/14 02:47:19;;;;;;;29.40;18.98;;;;;;;;;;10121793;28;20094;-63
2021/01/14 02:52:18;;;;;;;36.33;22.27;;;;;;;;;;10123244;28;20103;-62
2021/01/14 02:57:16;;;;;;;30.80;18.75;;;;;;;;;;10121574;28;20076;-62
2021/01/14 03:02:13;;;;;;;28.98;19.83;;;;;;;;;;10122246;28;20046;-62
2021/01/14 03:07:12;;;;;;;28.40;18.60;;;;;;;;;;10121971;28;20078;-62
2021/01/14 03:12:09;;;;;;;36.83;23.60;;;;;;;;;;10121387;28;20532;-64
2021/01/14 03:17:07;;;;;;;29.27;19.20;;;;;;;;;;10121293;28;20108;-63
2021/01/14 03:22:04;;;;;;;31.10;19.63;;;;;;;;;;10121495;28;20045;-63
2021/01/14 03:27:02;;;;;;;24.88;18.00;;;;;;;;;;10120679;28;20078;-63
2021/01/14 03:32:00;;;;;;;27.02;16.67;;;;;;;;;;10120974;28;20082;-63
2021/01/14 03:36:58;;;;;;;25.15;16.80;;;;;;;;;;10119887;28;20078;-64
2021/01/14 03:41:56;;;;;;;23.90;16.40;;;;;;;;;;10120898;28;20070;-64
2021/01/14 03:46:54;;;;;;;33.33;19.60;;;;;;;;;;10120565;28;20539;-64
2021/01/14 03:51:52;;;;;;;29.15;19.65;;;;;;;;;;10121289;28;20492;-63
2021/01/14 03:56:49;;;;;;;26.20;17.35;;;;;;;;;;10121190;28;20070;-64
2021/01/14 04:01:46;;;;;;;29.02;18.80;;;;;;;;;;10120954;28;20461;-64
2021/01/14 04:06:44;;;;;;;28.30;16.83;;;;;;;;;;10120423;28;20481;-64
2021/01/14 04:11:42;;;;;;;31.30;20.70;;;;;;;;;;10119283;28;20132;-64
2021/01/14 04:16:39;;;;;;;31.15;20.77;;;;;;;;;;10120407;28;20055;-63
2021/01/14 04:21:36;;;;;;;29.10;19.00;;;;;;;;;;10120273;28;20077;-64
2021/01/14 04:26:34;;;;;;;24.00;16.70;;;;;;;;;;10120099;28;20089;-63
2021/01/14 04:31:32;;;;;;;29.20;18.80;;;;;;;;;;10118903;28;20062;-63
2021/01/14 04:36:31;;;;;;;24.63;16.50;;;;;;;;;;10118831;28;20066;-62
2021/01/14 04:41:34;;;;;;;34.38;22.25;;;;;;;;;;10117970;28;20082;-63
2021/01/14 04:46:33;;;;;;;30.48;18.38;;;;;;;;;;10115310;28;20078;-63
2021/01/14 04:51:30;;;;;;;22.60;15.88;;;;;;;;;;10118028;28;20078;-63
2021/01/14 04:56:32;;;;;;;26.05;17.33;;;;;;;;;;10118530;28;20444;-63
2021/01/14 05:01:33;;;;;;;24.75;15.80;;;;;;;;;;10117593;28;20058;-62
2021/01/14 05:06:34;;;;;;;27.27;17.00;;;;;;;;;;10117067;28;20101;-64
2021/01/14 05:11:39;;;;;;;21.05;14.40;;;;;;;;;;10117132;28;20097;-64
2021/01/14 05:16:36;;;;;;;;;;;;;;;;;;10117915;28;20153;-62
2021/01/14 05:21:34;;;;;;;28.27;16.83;;;;;;;;;;10117936;28;19922;-61
2021/01/14 05:26:32;;;;;;;23.08;17.88;;;;;;;;;;10116615;28;20082;-61
2021/01/14 05:31:34;;;;;;;28.27;18.38;;;;;;;;;;10117460;28;20493;-62
2021/01/14 05:36:50;;;;;;;24.65;15.50;;;;;;;;;;10117217;28;20075;-61
2021/01/14 05:41:49;;;;;;;21.33;14.63;;;;;;;;;;10117309;28;20055;-63
2021/01/14 05:46:46;;;;;;;35.17;23.15;;;;;;;;;;10098442;28;20489;-61
2021/01/14 05:51:53;;;;;;;23.67;15.57;;;;;;;;;;10113446;28;20475;-62
2021/01/14 05:56:55;;;;;;;33.88;21.45;;;;;;;;;;10111562;28;20105;-63
2021/01/14 06:01:53;;;;;;;82.97;38.83;;;;;;;;;;10112214;28;20079;-62
2021/01/14 06:06:51;;;;;;;108.20;48.65;;;;;;;;;;10113789;28;20097;-63
2021/01/14 06:11:49;;;;;;;44.75;25.38;;;;;;;;;;10115165;28;20063;-63
2021/01/14 06:16:50;;;;;;;24.88;15.38;;;;;;;;;;10116106;28;20513;-62
2021/01/14 06:21:48;;;;;;;22.92;14.57;;;;;;;;;;10116276;28;20049;-62
2021/01/14 06:26:46;;;;;;;24.85;18.48;;;;;;;;;;10116092;28;20082;-62
2021/01/14 06:31:43;;;;;;;22.75;15.45;;;;;;;;;;10115250;28;20047;-62
2021/01/14 06:36:45;;;;;;;22.13;13.40;;;;;;;;;;10116203;28;20066;-62
2021/01/14 06:41:43;;;;;;;24.30;15.63;;;;;;;;;;10115458;28;20499;-62
2021/01/14 06:46:40;;;;;;;40.15;22.40;;;;;;;;;;10115711;28;20085;-62
2021/01/14 06:52:05;;;;;;;65.50;33.42;;;;;;;;;;10115700;28;20054;-62
2021/01/14 06:57:12;;;;;;;80.72;43.08;;;;;;;;;;10114712;28;20043;-62
2021/01/14 07:02:30;;;;;;;56.30;33.75;;;;;;;;;;10114544;28;20039;-62
2021/01/14 07:07:40;;;;;;;44.72;27.08;;;;;;;;;;10114580;28;20101;-62
2021/01/14 07:12:38;;;;;;;70.45;31.75;;;;;;;;;;10122491;28;20066;-63
2021/01/14 07:17:37;;;;;;;54.00;26.95;;;;;;;;;;10121795;28;20081;-62
2021/01/14 07:22:37;;;;;;;46.97;27.58;;;;;;;;;;10121161;28;20434;-62
2021/01/14 07:27:35;;;;;;;66.50;31.48;;;;;;;;;;10121229;28;20089;-62
2021/01/14 07:32:52;;;;;;;67.47;31.13;;;;;;;;;;10121091;28;20042;-62
2021/01/14 07:37:52;;;;;;;59.33;27.10;;;;;;;;;;10121134;28;20078;-64
2021/01/14 07:42:50;;;;;;;122.10;55.28;;;;;;;;;;10120482;28;20046;-62
2021/01/14 07:47:47;;;;;;;90.00;40.63;;;;;;;;;;10120632;28;20085;-62
2021/01/14 07:52:46;;;;;;;58.22;26.88;;;;;;;;;;10120157;28;20082;-62
2021/01/14 07:57:45;;;;;;;39.17;21.92;;;;;;;;;;10120058;28;20547;-62
2021/01/14 08:03:01;;;;;;;44.38;22.30;;;;;;;;;;10119794;28;20125;-62
2021/01/14 08:08:13;;;;;;;36.60;22.75;;;;;;;;;;10119106;28;20086;-62
2021/01/14 08:13:14;;;;;;;39.20;23.77;;;;;;;;;;10120036;28;20058;-63
2021/01/14 08:18:12;;;;;;;39.08;25.45;;;;;;;;;;10119789;28;20085;-62
2021/01/14 08:23:14;;;;;;;66.47;33.22;;;;;;;;;;10118825;28;20079;-63
2021/01/14 08:28:11;;;;;;;63.83;32.83;;;;;;;;;;10119190;28;20046;-64
2021/01/14 08:33:10;;;;;;;86.97;35.13;;;;;;;;;;10118639;28;20089;-64
2021/01/14 08:38:14;;;;;;;61.00;32.63;;;;;;;;;;10118942;28;20035;-62
2021/01/14 08:43:12;;;;;;;84.60;41.03;;;;;;;;;;10118584;28;20050;-62
2021/01/14 08:48:11;;;;;;;49.35;29.67;;;;;;;;;;10118504;28;20074;-62
2021/01/14 08:53:09;;;;;;;55.72;33.85;;;;;;;;;;10117446;28;20082;-62
2021/01/14 08:58:07;;;;;;;50.50;30.27;;;;;;;;;;10118121;28;20047;-62
2021/01/14 09:03:05;;;;;;;29.27;17.42;;;;;;;;;;10118034;28;20066;-62
2021/01/14 09:08:07;;;;;;;62.25;36.75;;;;;;;;;;10118039;28;20093;-62
2021/01/14 09:13:06;;;;;;;53.78;30.85;;;;;;;;;;10099994;28;20492;-63
2021/01/14 09:18:04;;;;;;;45.95;29.35;;;;;;;;;;10117014;28;20039;-63
2021/01/14 09:23:17;;;;;;;32.13;20.15;;;;;;;;;;10116839;28;20078;-63
2021/01/14 09:28:15;;;;;;;21.25;15.27;;;;;;;;;;10116886;28;20513;-63
2021/01/14 09:33:12;;;;;;;25.75;15.57;;;;;;;;;;10116238;28;20469;-63
2021/01/14 09:38:09;;;;;;;18.42;12.02;;;;;;;;;;10116817;28;20042;-63
2021/01/14 09:43:08;;;;;;;27.30;16.30;;;;;;;;;;10116592;28;20444;-63
2021/01/14 09:48:05;;;;;;;31.40;17.88;;;;;;;;;;10116048;28;20085;-63
2021/01/14 09:53:07;;;;;;;29.73;17.38;;;;;;;;;;10116058;28;20066;-63
2021/01/14 09:58:06;;;;;;;29.70;16.33;;;;;;;;;;10116007;28;20077;-63
2021/01/14 10:03:06;;;;;;;34.25;19.42;;;;;;;;;;10115652;28;20042;-63
2021/01/14 10:08:11;;;;;;;59.42;31.27;;;;;;;;;;10114972;28;20089;-63
2021/01/14 10:13:13;;;;;;;59.80;30.70;;;;;;;;;;10115381;28;20162;-63
2021/01/14 10:18:22;;;;;;;50.35;25.10;;;;;;;;;;10115639;28;20081;-63
2021/01/14 10:23:23;;;;;;;20.08;14.82;;;;;;;;;;10114680;28;20083;-63
2021/01/14 10:28:21;;;;;;;28.88;18.88;;;;;;;;;;10115272;28;20073;-62
2021/01/14 10:33:18;;;;;;;69.65;35.55;;;;;;;;;;10114035;28;20051;-63
2021/01/14 10:38:16;;;;;;;41.55;23.92;;;;;;;;;;10114562;28;20078;-63
2021/01/14 10:43:14;;;;;;;28.60;19.13;;;;;;;;;;10117117;28;20532;-62
2021/01/14 10:48:13;;;;;;;37.20;22.20;;;;;;;;;;10122954;28;20086;-62
2021/01/14 10:53:10;;;;;;;30.35;16.30;;;;;;;;;;10122446;28;20105;-62
2021/01/14 10:58:20;;;;;;;16.17;10.40;;;;;;;;;;10104898;28;20058;-62
2021/01/14 11:03:21;;;;;;;223.23;111.57;;;;;;;;;;10122481;28;20078;-63
2021/01/14 11:08:19;;;;;;;165.77;75.75;;;;;;;;;;10122233;28;20050;-63
2021/01/14 11:13:18;;;;;;;27.17;16.05;;;;;;;;;;10121327;28;20055;-63
2021/01/14 11:18:15;;;;;;;37.78;22.58;;;;;;;;;;10121969;28;20062;-63
2021/01/14 11:23:15;;;;;;;17.33;11.30;;;;;;;;;;10121183;28;20058;-63
2021/01/14 11:28:12;;;;;;;77.95;33.75;;;;;;;;;;10120952;28;20074;-62
2021/01/14 11:33:10;;;;;;;136.88;47.72;;;;;;;;;;10121529;28;20043;-62
2021/01/14 11:38:08;;;;;;;97.07;49.70;;;;;;;;;;10121890;28;20144;-63
2021/01/14 11:43:05;;;;;;;36.65;17.00;;;;;;;;;;10120756;28;20074;-63
2021/01/14 11:48:04;;;;;;;21.60;10.20;;;;;;;;;;10120600;28;20074;-63
2021/01/14 11:53:02;;;;;;;34.75;18.13;;;;;;;;;;10120431;28;20075;-63
2021/01/14 11:57:59;;;;;;;88.70;37.08;;;;;;;;;;10118642;28;20077;-63
2021/01/14 12:02:57;;;;;;;50.63;24.58;;;;;;;;;;10120303;28;20054;-63
2021/01/14 12:07:55;;;;;;;477.02;184.25;;;;;;;;;;10119591;28;20194;-63
2021/01/14 12:12:53;;;;;;;77.63;34.20;;;;;;;;;;10119408;28;20436;-63
2021/01/14 12:17:50;;;;;;;119.85;59.95;;;;;;;;;;10119664;28;20070;-64
2021/01/14 12:22:48;;;;;;;57.60;28.17;;;;;;;;;;10119557;28;20049;-63
2021/01/14 12:27:45;;;;;;;76.68;36.45;;;;;;;;;;10119388;28;20085;-63
2021/01/14 12:32:43;;;;;;;33.95;20.80;;;;;;;;;;10118904;28;20082;-64
2021/01/14 12:37:40;;;;;;;21.73;15.00;;;;;;;;;;10118618;28;20424;-63
2021/01/14 12:42:38;;;;;;;79.60;45.70;;;;;;;;;;10118679;28;20468;-63
2021/01/14 12:47:35;;;;;;;95.97;51.28;;;;;;;;;;10117887;28;20081;-63
2021/01/14 12:52:34;;;;;;;40.78;22.35;;;;;;;;;;10118423;28;20053;-63
2021/01/14 12:57:31;;;;;;;91.38;47.35;;;;;;;;;;10118031;28;20070;-63
2021/01/14 13:02:29;;;;;;;74.55;43.92;;;;;;;;;;10117762;28;20053;-63
2021/01/14 13:07:27;;;;;;;44.50;24.98;;;;;;;;;;10117507;28;20081;-63
2021/01/14 13:12:25;;;;;;;39.42;23.85;;;;;;;;;;10118015;28;20517;-63
2021/01/14 13:17:22;;;;;;;49.28;28.15;;;;;;;;;;10116604;28;20081;-63
2021/01/14 13:22:20;;;;;;;61.08;34.03;;;;;;;;;;10116931;28;20082;-63
2021/01/14 13:27:17;;;;;;;114.28;59.30;;;;;;;;;;10116785;28;20086;-62
2021/01/14 13:32:15;;;;;;;63.85;37.67;;;;;;;;;;10116728;28;20429;-62
2021/01/14 13:37:13;;;;;;;51.90;25.70;;;;;;;;;;10115963;28;20078;-62
2021/01/14 13:42:12;;;;;;;48.47;28.10;;;;;;;;;;10116413;28;20097;-62
2021/01/14 13:47:12;;;;;;;181.18;84.72;;;;;;;;;;10116166;28;20086;-62
2021/01/14 13:52:11;;;;;;;101.53;53.42;;;;;;;;;;10116007;28;20085;-63
2021/01/14 13:57:08;;;;;;;184.45;85.85;;;;;;;;;;10115281;28;20527;-63
2021/01/14 14:02:06;;;;;;;322.85;150.38;;;;;;;;;;10115820;28;20054;-63
2021/01/14 14:07:03;;;;;;;139.30;72.93;;;;;;;;;;10115489;28;20082;-63
2021/01/14 14:12:01;;;;;;;125.30;65.80;;;;;;;;;;10115657;28;20452;-62
2021/01/14 14:16:58;;;;;;;168.25;86.47;;;;;;;;;;10114708;28;20094;-64
2021/01/14 14:21:56;;;;;;;249.07;109.13;;;;;;;;;;10115579;28;20074;-62
2021/01/14 14:26:56;;;;;;;243.98;114.85;;;;;;;;;;10114731;28;20078;-61
2021/01/14 14:31:54;;;;;;;202.88;87.60;;;;;;;;;;10114467;28;20074;-62
2021/01/14 14:36:51;;;;;;;193.65;86.50;;;;;;;;;;10114777;28;20085;-62
2021/01/14 14:41:49;;;;;;;218.77;98.40;;;;;;;;;;10115407;28;20055;-62
2021/01/14 14:46:46;;;;;;;222.48;94.05;;;;;;;;;;10114451;28;20086;-62
2021/01/14 14:51:48;;;;;;;212.73;99.00;;;;;;;;;;10116382;28;20075;-62
2021/01/14 14:56:45;;;;;;;304.98;133.20;;;;;;;;;;10115718;28;20512;-63
2021/01/14 15:01:43;;;;;;;369.00;164.18;;;;;;;;;;10113650;28;20082;-62
2021/01/14 15:06:40;;;;;;;504.45;240.38;;;;;;;;;;10115401;28;20493;-64
2021/01/14 15:11:38;;;;;;;658.70;324.90;;;;;;;;;;10114292;28;20094;-62
2021/01/14 15:16:36;;;;;;;346.70;166.57;;;;;;;;;;10115538;28;20509;-63
2021/01/14 15:21:33;;;;;;;637.70;308.23;;;;;;;;;;10115239;28;20070;-63
2021/01/14 15:26:31;;;;;;;165.88;94.07;;;;;;;;;;10115067;28;20073;-62
2021/01/14 15:31:31;;;;;;;161.50;85.03;;;;;;;;;;10117025;28;20050;-62
2021/01/14 15:36:32;;;;;;;84.53;46.83;;;;;;;;;;10122118;28;20323;-62
2021/01/14 15:41:32;;;;;;;234.98;115.85;;;;;;;;;;10122808;28;20054;-62
2021/01/14 15:46:31;;;;;;;89.53;56.05;;;;;;;;;;10121386;28;20230;-60
2021/01/14 15:51:28;;;;;;;353.13;188.75;;;;;;;;;;10117749;28;20097;-62
2021/01/14 15:56:26;;;;;;;250.80;131.88;;;;;;;;;;10119126;28;20075;-63
2021/01/14 16:01:24;;;;;;;296.42;162.45;;;;;;;;;;10114720;28;20090;-62
2021/01/14 16:06:22;;;;;;;39.97;27.05;;;;;;;;;;10115984;28;20067;-62
2021/01/14 16:11:24;;;;;;;198.35;122.53;;;;;;;;;;10117626;28;20086;-64
2021/01/14 16:16:30;;;;;;;183.48;102.38;;;;;;;;;;10119891;28;20440;-63
2021/01/14 16:21:36;;;;;;;116.57;63.47;;;;;;;;;;10119591;28;20058;-62
2021/01/14 16:26:34;;;;;;;132.43;74.93;;;;;;;;;;10119824;28;20055;-62
2021/01/14 16:31:53;;;;;;;71.93;39.40;;;;;;;;;;10119757;28;20085;-64
2021/01/14 16:36:59;;;;;;;67.80;37.08;;;;;;;;;;10118863;28;20074;-62
2021/01/14 16:42:00;;;;;;;59.17;34.90;;;;;;;;;;10117238;28;20065;-62
2021/01/14 16:46:58;;;;;;;46.65;32.65;;;;;;;;;;10117325;28;20492;-63
2021/01/14 16:51:57;;;;;;;51.35;34.88;;;;;;;;;;10118135;28;20047;-62
2021/01/14 16:56:54;;;;;;;57.65;36.20;;;;;;;;;;10118008;28;20074;-62
2021/01/14 17:01:53;;;;;;;50.58;31.38;;;;;;;;;;10118876;28;20042;-63
2021/01/14 17:06:57;;;;;;;31.08;18.35;;;;;;;;;;10117375;28;20082;-63
2021/01/14 17:11:55;;;;;;;35.95;21.23;;;;;;;;;;10117009;28;20066;-62
2021/01/14 17:16:53;;;;;;;68.35;40.75;;;;;;;;;;10116819;28;20054;-62
2021/01/14 17:21:50;;;;;;;36.08;19.77;;;;;;;;;;10118177;28;20070;-63
2021/01/14 17:26:50;;;;;;;17.13;10.02;;;;;;;;;;10116467;28;20046;-62
2021/01/14 17:31:47;;;;;;;34.65;21.42;;;;;;;;;;10117768;28;20081;-62
2021/01/14 17:36:49;;;;;;;35.22;21.48;;;;;;;;;;10117134;28;20053;-64
2021/01/14 17:41:48;;;;;;;30.65;18.33;;;;;;;;;;10115632;28;20066;-62
2021/01/14 17:46:46;;;;;;;38.33;21.08;;;;;;;;;;10117374;28;20078;-62
2021/01/14 17:51:43;;;;;;;35.22;22.13;;;;;;;;;;10116779;28;20074;-63
2021/01/14 17:56:41;;;;;;;88.82;52.55;;;;;;;;;;10116776;28;20077;-63
2021/01/14 18:01:48;;;;;;;49.53;34.70;;;;;;;;;;10115846;28;20050;-63
2021/01/14 18:06:47;;;;;;;44.97;31.40;;;;;;;;;;10116383;28;20050;-63
2021/01/14 18:11:45;;;;;;;43.92;31.48;;;;;;;;;;10114008;28;20090;-62
2021/01/14 18:16:44;;;;;;;35.85;26.33;;;;;;;;;;10115347;28;20491;-64
2021/01/14 18:21:43;;;;;;;31.27;24.10;;;;;;;;;;10115340;28;20047;-64
2021/01/14 18:26:42;;;;;;;73.78;48.47;;;;;;;;;;10097814;28;20054;-64
2021/01/14 18:31:42;;;;;;;65.47;41.33;;;;;;;;;;10115026;28;20042;-63
2021/01/14 18:36:41;;;;;;;53.35;35.95;;;;;;;;;;10115925;28;20047;-64
2021/01/14 18:41:40;;;;;;;45.67;28.27;;;;;;;;;;10115310;28;20089;-63
2021/01/14 18:46:39;;;;;;;59.65;36.42;;;;;;;;;;10118110;28;20042;-64
2021/01/14 18:51:37;;;;;;;60.78;32.60;;;;;;;;;;10116098;28;20074;-64
2021/01/14 18:56:34;;;;;;;65.10;36.30;;;;;;;;;;10115589;28;20078;-63
2021/01/14 19:01:33;;;;;;;53.55;30.17;;;;;;;;;;10115286;28;20135;-63
2021/01/14 19:06:33;;;;;;;55.90;37.10;;;;;;;;;;10119080;28;20069;-62
2021/01/14 19:11:33;;;;;;;74.53;50.72;;;;;;;;;;10124138;28;20070;-61
2021/01/14 19:16:30;;;;;;;72.88;46.45;;;;;;;;;;10104527;28;20054;-62
2021/01/14 19:21:36;;;;;;;60.35;39.83;;;;;;;;;;10121572;28;20047;-64
2021/01/14 19:26:33;;;;;;;34.55;27.05;;;;;;;;;;10122040;28;20050;-63
2021/01/14 19:31:30;;;;;;;31.23;21.92;;;;;;;;;;10122388;28;20078;-62
2021/01/14 19:36:28;;;;;;;43.67;28.00;;;;;;;;;;10121176;28;20050;-63
2021/01/14 19:41:28;;;;;;;31.90;24.52;;;;;;;;;;10121984;28;20469;-63
2021/01/14 19:46:31;;;;;;;40.50;26.23;;;;;;;;;;10121594;28;20046;-62
2021/01/14 19:51:29;;;;;;;37.28;23.63;;;;;;;;;;10120342;28;20088;-62
2021/01/14 19:56:27;;;;;;;44.10;27.88;;;;;;;;;;10120813;28;20051;-62
2021/01/14 20:01:24;;;;;;;17.35;13.25;;;;;;;;;;10121058;28;20051;-63
2021/01/14 20:06:22;;;;;;;27.75;19.17;;;;;;;;;;10120262;28;20058;-63
2021/01/14 20:11:26;;;;;;;80.88;44.08;;;;;;;;;;10119671;28;20494;-62
2021/01/14 20:16:24;;;;;;;16.20;11.85;;;;;;;;;;10119085;28;20089;-63
2021/01/14 20:21:24;;;;;;;27.65;16.77;;;;;;;;;;10120594;28;20118;-63
2021/01/14 20:26:21;;;;;;;23.23;15.60;;;;;;;;;;10118668;28;20047;-62
2021/01/14 20:31:19;;;;;;;31.33;18.25;;;;;;;;;;10119894;28;20595;-64
2021/01/14 20:36:20;;;;;;;19.10;12.88;;;;;;;;;;10119504;28;20055;-63
2021/01/14 20:41:18;;;;;;;25.13;15.88;;;;;;;;;;10117991;28;20082;-61
2021/01/14 20:46:16;;;;;;;38.40;23.00;;;;;;;;;;10119308;28;20070;-61
2021/01/14 20:51:17;;;;;;;30.00;18.10;;;;;;;;;;10118637;28;20070;-59
2021/01/14 20:56:17;;;;;;;18.95;13.38;;;;;;;;;;10117281;28;20062;-60
2021/01/14 21:01:20;;;;;;;23.63;15.82;;;;;;;;;;10118564;28;20063;-62
2021/01/14 21:06:18;;;;;;;21.63;13.68;;;;;;;;;;10118694;28;20047;-64
2021/01/14 21:11:16;;;;;;;25.98;15.60;;;;;;;;;;10117272;28;20097;-62
2021/01/14 21:16:15;;;;;;;29.65;16.20;;;;;;;;;;10118275;28;20042;-62
2021/01/14 21:21:20;;;;;;;24.85;15.73;;;;;;;;;;10118529;28;20070;-63
2021/01/14 21:26:18;;;;;;;20.95;14.88;;;;;;;;;;10117481;28;20065;-63
2021/01/14 21:31:22;;;;;;;22.52;13.95;;;;;;;;;;10116069;28;20082;-64
2021/01/14 21:36:23;;;;;;;35.88;18.27;;;;;;;;;;10099360;28;20043;-62
2021/01/14 21:41:21;;;;;;;53.15;26.75;;;;;;;;;;10116582;28;20086;-62
2021/01/14 21:46:28;;;;;;;31.83;17.92;;;;;;;;;;10115707;28;20046;-62
2021/01/14 21:51:26;;;;;;;31.30;18.48;;;;;;;;;;10116302;28;20078;-64
2021/01/14 21:56:27;;;;;;;26.75;16.50;;;;;;;;;;10116864;28;20070;-62
2021/01/14 22:01:27;;;;;;;19.83;14.77;;;;;;;;;;10097607;28;20050;-63
2021/01/14 22:06:33;;;;;;;17.48;12.77;;;;;;;;;;10112792;28;20090;-63
2021/01/14 22:11:30;;;;;;;;;;;;;;;;;;10111394;28;20101;-63
2021/01/14 22:16:29;;;;;;;15.23;11.30;;;;;;;;;;10114871;28;19957;-63
2021/01/14 22:21:27;;;;;;;23.08;13.43;;;;;;;;;;10117897;28;20137;-63
2021/01/14 22:26:31;;;;;;;21.33;13.38;;;;;;;;;;10120890;28;20497;-62
2021/01/14 22:31:37;;;;;;;22.03;15.20;;;;;;;;;;10115570;28;20556;-62
2021/01/14 22:36:37;;;;;;;19.60;14.55;;;;;;;;;;10114280;28;20452;-63
2021/01/14 22:41:35;;;;;;;22.48;14.93;;;;;;;;;;10122086;28;20085;-63
2021/01/14 22:46:32;;;;;;;18.60;14.40;;;;;;;;;;10124000;28;20409;-64
2021/01/14 22:51:31;;;;;;;19.40;14.93;;;;;;;;;;10123667;28;20039;-63
2021/01/14 22:56:29;;;;;;;19.27;13.55;;;;;;;;;;10123522;28;20499;-63
2021/01/14 23:01:33;;;;;;;19.77;14.80;;;;;;;;;;10122649;28;20049;-62
2021/01/14 23:06:34;;;;;;;18.40;13.35;;;;;;;;;;10121191;28;20101;-62
2021/01/14 23:11:32;;;;;;;19.90;13.25;;;;;;;;;;10122621;28;20093;-62
2021/01/14 23:16:29;;;;;;;21.20;14.95;;;;;;;;;;10121968;28;20182;-62
2021/01/14 23:21:27;;;;;;;24.80;17.67;;;;;;;;;;10122073;28;20081;-61
2021/01/14 23:26:25;;;;;;;22.02;14.55;;;;;;;;;;10122458;28;20074;-62
2021/01/14 23:31:22;;;;;;;19.73;14.32;;;;;;;;;;10122273;28;20082;-64
2021/01/14 23:36:21;;;;;;;20.48;15.52;;;;;;;;;;10122123;28;20080;-63
2021/01/14 23:41:18;;;;;;;20.10;14.50;;;;;;;;;;10120861;28;20507;-63
2021/01/14 23:46:17;;;;;;;25.92;16.90;;;;;;;;;;10121137;28;20484;-62
2021/01/14 23:51:15;;;;;;;62.55;29.67;;;;;;;;;;10120433;28;20078;-63
2021/01/14 23:56:13;;;;;;;30.30;18.80;;;;;;;;;;10119586;28;20066;-63
